sensor_id;sensor_type;location;lat;lon;timestamp;pressure;altitude;pressure_sealevel;temperature;humidity
78299;BME280;67556;55.656;12.590;2023-03-20T00:00:17;101369.94;;;6.95;76.87
78299;BME280;67556;55.656;12.590;2023-03-20T00:02:44;101359.16;;;6.92;77.84
78299;BME280;67556;55.656;12.590;2023-03-20T00:05:16;101355.97;;;6.98;76.94
78299;BME280;67556;55.656;12.590;2023-03-20T00:07:46;101353.03;;;6.93;76.89
78299;BME280;67556;55.656;12.590;2023-03-20T00:10:14;101353.41;;;6.85;77.13
78299;BME280;67556;55.656;12.590;2023-03-20T00:12:43;101354.50;;;6.88;77.20
78299;BME280;67556;55.656;12.590;2023-03-20T00:15:23;101358.63;;;6.83;76.44
78299;BME280;67556;55.656;12.590;2023-03-20T00:17:52;101353.41;;;6.85;76.59
78299;BME280;67556;55.656;12.590;2023-03-20T00:20:21;101349.31;;;6.75;76.79
78299;BME280;67556;55.656;12.590;2023-03-20T00:22:50;101341.91;;;6.69;77.34
78299;BME280;67556;55.656;12.590;2023-03-20T00:25:20;101346.69;;;6.75;77.01
78299;BME280;67556;55.656;12.590;2023-03-20T00:27:47;101335.44;;;6.64;77.33
78299;BME280;67556;55.656;12.590;2023-03-20T00:30:25;101316.38;;;6.55;77.57
78299;BME280;67556;55.656;12.590;2023-03-20T00:32:54;101336.09;;;6.75;77.36
78299;BME280;67556;55.656;12.590;2023-03-20T00:35:25;101329.25;;;6.49;77.88
78299;BME280;67556;55.656;12.590;2023-03-20T00:37:59;101328.31;;;6.34;78.05
78299;BME280;67556;55.656;12.590;2023-03-20T00:40:29;101327.88;;;6.41;78.14
78299;BME280;67556;55.656;12.590;2023-03-20T00:42:58;101322.19;;;6.35;78.65
78299;BME280;67556;55.656;12.590;2023-03-20T00:45:28;101325.13;;;6.39;78.72
78299;BME280;67556;55.656;12.590;2023-03-20T00:48:01;101331.47;;;5.98;80.03
78299;BME280;67556;55.656;12.590;2023-03-20T00:50:36;101342.22;;;6.02;80.59
78299;BME280;67556;55.656;12.590;2023-03-20T00:53:05;101334.84;;;5.83;81.93
78299;BME280;67556;55.656;12.590;2023-03-20T00:55:33;101332.44;;;5.72;82.01
78299;BME280;67556;55.656;12.590;2023-03-20T00:58:01;101331.34;;;5.69;83.09
78299;BME280;67556;55.656;12.590;2023-03-20T01:00:36;101338.59;;;5.58;84.94
78299;BME280;67556;55.656;12.590;2023-03-20T01:03:11;101345.19;;;5.65;85.95
78299;BME280;67556;55.656;12.590;2023-03-20T01:05:38;101349.72;;;5.67;86.62
78299;BME280;67556;55.656;12.590;2023-03-20T01:08:10;101338.13;;;5.79;87.55
78299;BME280;67556;55.656;12.590;2023-03-20T01:10:37;101344.38;;;5.94;87.12
78299;BME280;67556;55.656;12.590;2023-03-20T01:13:12;101348.03;;;5.96;87.03
78299;BME280;67556;55.656;12.590;2023-03-20T01:15:40;101353.56;;;5.86;88.04
78299;BME280;67556;55.656;12.590;2023-03-20T01:18:11;101344.06;;;5.89;87.79
78299;BME280;67556;55.656;12.590;2023-03-20T01:20:38;101336.47;;;5.81;88.48
78299;BME280;67556;55.656;12.590;2023-03-20T01:23:07;101322.31;;;5.93;88.17
78299;BME280;67556;55.656;12.590;2023-03-20T01:25:34;101328.13;;;6.16;88.16
78299;BME280;67556;55.656;12.590;2023-03-20T01:28:02;101330.53;;;5.98;89.01
78299;BME280;67556;55.656;12.590;2023-03-20T01:30:31;101342.94;;;5.99;89.04
78299;BME280;67556;55.656;12.590;2023-03-20T01:32:59;101330.16;;;5.92;89.36
78299;BME280;67556;55.656;12.590;2023-03-20T01:35:26;101323.81;;;6.03;89.86
78299;BME280;67556;55.656;12.590;2023-03-20T01:37:54;101329.28;;;6.06;89.36
78299;BME280;67556;55.656;12.590;2023-03-20T01:40:30;101327.94;;;6.13;89.40
78299;BME280;67556;55.656;12.590;2023-03-20T01:43:01;101333.38;;;6.01;90.08
78299;BME280;67556;55.656;12.590;2023-03-20T01:45:31;101319.53;;;6.05;90.57
78299;BME280;67556;55.656;12.590;2023-03-20T01:48:07;101326.19;;;6.13;89.97
78299;BME280;67556;55.656;12.590;2023-03-20T01:50:38;101320.72;;;6.10;90.14
78299;BME280;67556;55.656;12.590;2023-03-20T01:53:08;101318.66;;;6.19;90.08
78299;BME280;67556;55.656;12.590;2023-03-20T01:55:39;101310.25;;;6.12;90.43
78299;BME280;67556;55.656;12.590;2023-03-20T01:58:09;101316.91;;;6.20;89.62
78299;BME280;67556;55.656;12.590;2023-03-20T02:00:38;101328.53;;;6.37;89.75
78299;BME280;67556;55.656;12.590;2023-03-20T02:03:06;101324.50;;;6.29;89.83
78299;BME280;67556;55.656;12.590;2023-03-20T02:05:34;101310.06;;;6.23;89.67
78299;BME280;67556;55.656;12.590;2023-03-20T02:08:18;101313.44;;;6.21;90.35
78299;BME280;67556;55.656;12.590;2023-03-20T02:10:49;101316.00;;;6.19;89.94
78299;BME280;67556;55.656;12.590;2023-03-20T02:13:16;101303.78;;;6.21;90.13
78299;BME280;67556;55.656;12.590;2023-03-20T02:16:02;101311.06;;;6.25;90.12
78299;BME280;67556;55.656;12.590;2023-03-20T02:18:29;101297.56;;;6.36;89.80
78299;BME280;67556;55.656;12.590;2023-03-20T02:24:20;101313.34;;;6.34;89.98
78299;BME280;67556;55.656;12.590;2023-03-20T02:27:04;101318.72;;;6.36;89.55
78299;BME280;67556;55.656;12.590;2023-03-20T02:29:52;101311.44;;;6.46;88.82
78299;BME280;67556;55.656;12.590;2023-03-20T02:32:54;101313.53;;;6.52;88.34
78299;BME280;67556;55.656;12.590;2023-03-20T02:35:54;101324.66;;;6.61;86.97
78299;BME280;67556;55.656;12.590;2023-03-20T02:41:25;101317.28;;;6.41;87.34
78299;BME280;67556;55.656;12.590;2023-03-20T02:44:00;101316.38;;;6.55;85.94
78299;BME280;67556;55.656;12.590;2023-03-20T02:46:37;101311.09;;;6.55;85.17
78299;BME280;67556;55.656;12.590;2023-03-20T02:49:12;101315.09;;;6.48;85.23
78299;BME280;67556;55.656;12.590;2023-03-20T02:51:48;101320.75;;;6.55;86.05
78299;BME280;67556;55.656;12.590;2023-03-20T02:54:23;101312.34;;;6.47;85.99
78299;BME280;67556;55.656;12.590;2023-03-20T02:56:59;101302.69;;;6.33;86.82
78299;BME280;67556;55.656;12.590;2023-03-20T02:59:32;101307.78;;;6.30;86.36
78299;BME280;67556;55.656;12.590;2023-03-20T03:02:05;101298.78;;;6.41;86.03
78299;BME280;67556;55.656;12.590;2023-03-20T03:04:37;101305.44;;;6.49;86.15
78299;BME280;67556;55.656;12.590;2023-03-20T03:07:06;101288.81;;;6.22;86.49
78299;BME280;67556;55.656;12.590;2023-03-20T03:09:38;101303.56;;;6.18;87.08
78299;BME280;67556;55.656;12.590;2023-03-20T03:12:10;101307.06;;;6.32;86.91
78299;BME280;67556;55.656;12.590;2023-03-20T03:14:46;101307.31;;;6.22;87.19
78299;BME280;67556;55.656;12.590;2023-03-20T03:17:15;101296.47;;;6.17;87.35
78299;BME280;67556;55.656;12.590;2023-03-20T03:19:46;101299.03;;;6.16;87.30
78299;BME280;67556;55.656;12.590;2023-03-20T03:22:18;101293.53;;;6.28;86.85
78299;BME280;67556;55.656;12.590;2023-03-20T03:24:46;101295.13;;;6.24;86.92
78299;BME280;67556;55.656;12.590;2023-03-20T03:27:18;101301.03;;;6.20;86.29
78299;BME280;67556;55.656;12.590;2023-03-20T03:29:50;101294.03;;;6.20;86.29
78299;BME280;67556;55.656;12.590;2023-03-20T03:32:22;101293.53;;;6.28;86.02
78299;BME280;67556;55.656;12.590;2023-03-20T03:34:50;101283.06;;;6.29;85.62
78299;BME280;67556;55.656;12.590;2023-03-20T03:37:23;101286.97;;;6.36;85.52
78299;BME280;67556;55.656;12.590;2023-03-20T03:39:55;101273.69;;;6.49;85.37
78299;BME280;67556;55.656;12.590;2023-03-20T03:42:29;101272.75;;;6.48;84.64
78299;BME280;67556;55.656;12.590;2023-03-20T03:45:02;101272.03;;;6.51;84.86
78299;BME280;67556;55.656;12.590;2023-03-20T03:47:33;101268.47;;;6.50;84.62
78299;BME280;67556;55.656;12.590;2023-03-20T03:50:07;101259.44;;;6.62;84.52
78299;BME280;67556;55.656;12.590;2023-03-20T03:52:36;101260.50;;;6.65;84.22
78299;BME280;67556;55.656;12.590;2023-03-20T03:55:08;101268.16;;;6.75;83.71
78299;BME280;67556;55.656;12.590;2023-03-20T03:57:41;101264.72;;;6.62;84.03
78299;BME280;67556;55.656;12.590;2023-03-20T04:02:47;101264.88;;;6.65;83.62
78299;BME280;67556;55.656;12.590;2023-03-20T04:05:15;101263.06;;;6.64;84.00
78299;BME280;67556;55.656;12.590;2023-03-20T04:07:44;101272.38;;;6.57;84.13
78299;BME280;67556;55.656;12.590;2023-03-20T04:10:11;101264.09;;;6.51;84.37
78299;BME280;67556;55.656;12.590;2023-03-20T04:12:42;101263.78;;;6.61;84.15
78299;BME280;67556;55.656;12.590;2023-03-20T04:15:10;101263.59;;;6.73;84.07
78299;BME280;67556;55.656;12.590;2023-03-20T04:17:37;101256.56;;;6.73;83.95
78299;BME280;67556;55.656;12.590;2023-03-20T04:20:06;101250.41;;;6.89;83.02
78299;BME280;67556;55.656;12.590;2023-03-20T04:22:33;101255.59;;;6.71;83.17
78299;BME280;67556;55.656;12.590;2023-03-20T04:25:00;101264.88;;;6.65;84.21
78299;BME280;67556;55.656;12.590;2023-03-20T04:27:28;101263.28;;;6.37;84.28
78299;BME280;67556;55.656;12.590;2023-03-20T04:29:57;101266.19;;;6.42;85.17
78299;BME280;67556;55.656;12.590;2023-03-20T04:32:24;101258.41;;;6.60;85.06
78299;BME280;67556;55.656;12.590;2023-03-20T04:34:54;101270.94;;;6.47;85.51
78299;BME280;67556;55.656;12.590;2023-03-20T04:37:20;101267.47;;;6.63;85.60
78299;BME280;67556;55.656;12.590;2023-03-20T04:39:47;101260.69;;;6.83;84.20
78299;BME280;67556;55.656;12.590;2023-03-20T04:42:14;101260.56;;;6.82;84.49
78299;BME280;67556;55.656;12.590;2023-03-20T04:44:40;101262.03;;;6.77;84.11
78299;BME280;67556;55.656;12.590;2023-03-20T04:47:08;101266.44;;;6.61;84.55
78299;BME280;67556;55.656;12.590;2023-03-20T04:49:36;101264.63;;;6.75;84.00
78299;BME280;67556;55.656;12.590;2023-03-20T04:52:03;101264.69;;;6.77;84.30
78299;BME280;67556;55.656;12.590;2023-03-20T04:54:31;101270.56;;;6.56;84.57
78299;BME280;67556;55.656;12.590;2023-03-20T04:56:57;101268.03;;;6.58;85.56
78299;BME280;67556;55.656;12.590;2023-03-20T04:59:24;101259.00;;;6.24;86.96
78299;BME280;67556;55.656;12.590;2023-03-20T05:01:51;101263.66;;;6.29;87.17
78299;BME280;67556;55.656;12.590;2023-03-20T05:04:18;101263.75;;;6.45;86.64
78299;BME280;67556;55.656;12.590;2023-03-20T05:06:45;101264.00;;;6.49;85.88
78299;BME280;67556;55.656;12.590;2023-03-20T05:09:14;101259.78;;;6.23;87.44
78299;BME280;67556;55.656;12.590;2023-03-20T05:11:41;101266.09;;;6.25;87.55
78299;BME280;67556;55.656;12.590;2023-03-20T05:14:08;101261.47;;;6.36;87.31
78299;BME280;67556;55.656;12.590;2023-03-20T05:16:36;101251.31;;;6.44;87.17
78299;BME280;67556;55.656;12.590;2023-03-20T05:19:02;101250.75;;;6.64;86.68
78299;BME280;67556;55.656;12.590;2023-03-20T05:21:30;101253.56;;;6.67;85.85
78299;BME280;67556;55.656;12.590;2023-03-20T05:23:57;101252.56;;;6.65;85.58
78299;BME280;67556;55.656;12.590;2023-03-20T05:26:25;101247.31;;;6.50;86.17
78299;BME280;67556;55.656;12.590;2023-03-20T05:28:52;101252.22;;;6.59;86.45
78299;BME280;67556;55.656;12.590;2023-03-20T05:31:19;101253.81;;;6.41;86.51
78299;BME280;67556;55.656;12.590;2023-03-20T05:33:46;101255.06;;;6.62;86.06
78299;BME280;67556;55.656;12.590;2023-03-20T05:36:14;101244.28;;;6.59;85.87
78299;BME280;67556;55.656;12.590;2023-03-20T05:38:42;101255.06;;;6.62;86.18
78299;BME280;67556;55.656;12.590;2023-03-20T05:41:09;101256.16;;;6.51;86.01
78299;BME280;67556;55.656;12.590;2023-03-20T05:43:36;101255.81;;;6.45;86.47
78299;BME280;67556;55.656;12.590;2023-03-20T05:46:03;101260.06;;;6.43;86.80
78299;BME280;67556;55.656;12.590;2023-03-20T05:48:31;101255.97;;;6.63;85.80
78299;BME280;67556;55.656;12.590;2023-03-20T05:50:57;101259.63;;;6.50;86.06
78299;BME280;67556;55.656;12.590;2023-03-20T05:53:23;101267.38;;;6.47;85.90
78299;BME280;67556;55.656;12.590;2023-03-20T05:55:51;101257.97;;;6.52;85.71
78299;BME280;67556;55.656;12.590;2023-03-20T05:58:18;101248.09;;;6.64;85.60
78299;BME280;67556;55.656;12.590;2023-03-20T06:00:44;101257.69;;;6.62;85.12
78299;BME280;67556;55.656;12.590;2023-03-20T06:03:10;101261.72;;;6.87;84.95
78299;BME280;67556;55.656;12.590;2023-03-20T06:05:37;101260.41;;;6.79;84.88
78299;BME280;67556;55.656;12.590;2023-03-20T06:08:04;101257.81;;;6.49;85.67
78299;BME280;67556;55.656;12.590;2023-03-20T06:10:30;101240.63;;;6.57;85.66
78299;BME280;67556;55.656;12.590;2023-03-20T06:12:58;101261.00;;;6.58;84.92
78299;BME280;67556;55.656;12.590;2023-03-20T06:15:26;101273.38;;;6.59;85.18
78299;BME280;67556;55.656;12.590;2023-03-20T06:17:55;101269.84;;;6.44;85.63
78299;BME280;67556;55.656;12.590;2023-03-20T06:20:21;101272.19;;;6.69;85.29
78299;BME280;67556;55.656;12.590;2023-03-20T06:22:48;101269.47;;;6.67;84.64
78299;BME280;67556;55.656;12.590;2023-03-20T06:25:15;101268.56;;;6.52;84.92
78299;BME280;67556;55.656;12.590;2023-03-20T06:27:44;101272.22;;;6.54;85.07
78299;BME280;67556;55.656;12.590;2023-03-20T06:30:14;101274.03;;;6.55;85.65
78299;BME280;67556;55.656;12.590;2023-03-20T06:32:41;101279.50;;;6.58;84.95
78299;BME280;67556;55.656;12.590;2023-03-20T06:35:09;101279.09;;;6.82;84.49
78299;BME280;67556;55.656;12.590;2023-03-20T06:37:36;101280.00;;;6.82;84.80
78299;BME280;67556;55.656;12.590;2023-03-20T06:40:03;101282.38;;;6.78;84.49
78299;BME280;67556;55.656;12.590;2023-03-20T06:42:31;101287.72;;;6.48;85.44
78299;BME280;67556;55.656;12.590;2023-03-20T06:44:57;101296.13;;;6.41;85.63
78299;BME280;67556;55.656;12.590;2023-03-20T06:47:25;101307.69;;;6.43;85.47
78299;BME280;67556;55.656;12.590;2023-03-20T06:49:58;101292.13;;;6.33;86.03
78299;BME280;67556;55.656;12.590;2023-03-20T06:52:25;101295.19;;;6.25;87.10
78299;BME280;67556;55.656;12.590;2023-03-20T06:54:56;101303.59;;;6.33;85.95
78299;BME280;67556;55.656;12.590;2023-03-20T06:57:22;101293.63;;;6.14;85.91
78299;BME280;67556;55.656;12.590;2023-03-20T06:59:50;101297.41;;;6.33;84.84
78299;BME280;67556;55.656;12.590;2023-03-20T07:02:18;101314.38;;;6.36;85.42
78299;BME280;67556;55.656;12.590;2023-03-20T07:04:46;101312.81;;;6.25;85.35
78299;BME280;67556;55.656;12.590;2023-03-20T07:07:13;101307.16;;;6.34;84.88
78299;BME280;67556;55.656;12.590;2023-03-20T07:09:39;101318.56;;;6.47;83.99
78299;BME280;67556;55.656;12.590;2023-03-20T07:12:10;101311.44;;;6.32;84.48
78299;BME280;67556;55.656;12.590;2023-03-20T07:14:38;101308.63;;;6.29;84.44
78299;BME280;67556;55.656;12.590;2023-03-20T07:17:07;101316.16;;;6.22;84.84
78299;BME280;67556;55.656;12.590;2023-03-20T07:19:34;101312.19;;;6.29;84.58
78299;BME280;67556;55.656;12.590;2023-03-20T07:22:04;101320.75;;;6.25;83.71
78299;BME280;67556;55.656;12.590;2023-03-20T07:24:32;101315.66;;;6.28;83.90
78299;BME280;67556;55.656;12.590;2023-03-20T07:26:58;101317.66;;;6.32;84.01
78299;BME280;67556;55.656;12.590;2023-03-20T07:29:25;101320.75;;;6.25;84.46
78299;BME280;67556;55.656;12.590;2023-03-20T07:31:52;101314.63;;;6.26;84.20
78299;BME280;67556;55.656;12.590;2023-03-20T07:34:18;101325.22;;;6.26;84.31
78299;BME280;67556;55.656;12.590;2023-03-20T07:36:44;101323.31;;;6.38;83.27
78299;BME280;67556;55.656;12.590;2023-03-20T07:39:13;101320.03;;;6.42;83.26
78299;BME280;67556;55.656;12.590;2023-03-20T07:41:39;101321.94;;;6.30;82.92
78299;BME280;67556;55.656;12.590;2023-03-20T07:44:06;101329.03;;;6.16;83.21
78299;BME280;67556;55.656;12.590;2023-03-20T07:46:34;101312.53;;;6.20;83.76
78299;BME280;67556;55.656;12.590;2023-03-20T07:49:01;101318.19;;;6.27;83.56
78299;BME280;67556;55.656;12.590;2023-03-20T07:51:27;101328.59;;;6.38;83.41
78299;BME280;67556;55.656;12.590;2023-03-20T07:53:53;101320.53;;;6.22;83.50
78299;BME280;67556;55.656;12.590;2023-03-20T07:56:22;101320.75;;;6.25;83.02
78299;BME280;67556;55.656;12.590;2023-03-20T07:58:49;101317.44;;;6.14;83.52
78299;BME280;67556;55.656;12.590;2023-03-20T08:01:16;101328.03;;;6.29;83.06
78299;BME280;67556;55.656;12.590;2023-03-20T08:03:42;101333.69;;;6.20;83.02
78299;BME280;67556;55.656;12.590;2023-03-20T08:06:09;101339.63;;;6.31;83.66
78299;BME280;67556;55.656;12.590;2023-03-20T08:08:35;101325.28;;;6.28;83.81
78299;BME280;67556;55.656;12.590;2023-03-20T08:11:04;101322.00;;;6.17;84.13
78299;BME280;67556;55.656;12.590;2023-03-20T08:13:32;101331.69;;;6.31;84.18
78299;BME280;67556;55.656;12.590;2023-03-20T08:16:00;101326.03;;;6.25;83.98
78299;BME280;67556;55.656;12.590;2023-03-20T08:18:27;101326.94;;;6.25;84.78
78299;BME280;67556;55.656;12.590;2023-03-20T08:20:54;101322.94;;;6.32;84.12
78299;BME280;67556;55.656;12.590;2023-03-20T08:23:21;101336.69;;;6.27;84.12
78299;BME280;67556;55.656;12.590;2023-03-20T08:25:48;101322.72;;;5.99;84.32
78299;BME280;67556;55.656;12.590;2023-03-20T08:28:15;101328.84;;;6.13;85.12
78299;BME280;67556;55.656;12.590;2023-03-20T08:30:43;101326.00;;;6.10;84.70
78299;BME280;67556;55.656;12.590;2023-03-20T08:33:10;101317.91;;;6.07;84.94
78299;BME280;67556;55.656;12.590;2023-03-20T08:35:37;101312.34;;;6.17;85.00
78299;BME280;67556;55.656;12.590;2023-03-20T08:38:04;101311.88;;;6.39;84.70
78299;BME280;67556;55.656;12.590;2023-03-20T08:40:31;101320.81;;;6.27;84.86
78299;BME280;67556;55.656;12.590;2023-03-20T08:42:58;101312.34;;;6.17;85.64
78299;BME280;67556;55.656;12.590;2023-03-20T08:45:25;101297.28;;;6.16;85.21
78299;BME280;67556;55.656;12.590;2023-03-20T08:47:52;101315.66;;;6.28;85.69
78299;BME280;67556;55.656;12.590;2023-03-20T08:50:19;101314.72;;;6.28;85.65
78299;BME280;67556;55.656;12.590;2023-03-20T08:52:46;101315.34;;;6.23;85.19
78299;BME280;67556;55.656;12.590;2023-03-20T08:55:14;101307.59;;;6.27;85.44
78299;BME280;67556;55.656;12.590;2023-03-20T08:57:41;101310.06;;;6.23;85.68
78299;BME280;67556;55.656;12.590;2023-03-20T09:00:10;101311.06;;;6.25;85.69
78299;BME280;67556;55.656;12.590;2023-03-20T09:02:38;101316.16;;;6.22;85.29
78299;BME280;67556;55.656;12.590;2023-03-20T09:05:06;101320.91;;;6.13;86.38
78299;BME280;67556;55.656;12.590;2023-03-20T09:07:34;101316.00;;;6.19;86.81
78299;BME280;67556;55.656;12.590;2023-03-20T09:10:01;101308.34;;;6.24;86.69
78299;BME280;67556;55.656;12.590;2023-03-20T09:12:28;101308.44;;;6.25;86.28
78299;BME280;67556;55.656;12.590;2023-03-20T09:14:56;101304.03;;;6.11;86.52
78299;BME280;67556;55.656;12.590;2023-03-20T09:17:23;101312.53;;;6.20;86.70
78299;BME280;67556;55.656;12.590;2023-03-20T09:19:50;101309.44;;;6.42;86.00
78299;BME280;67556;55.656;12.590;2023-03-20T09:22:18;101319.66;;;6.51;85.15
78299;BME280;67556;55.656;12.590;2023-03-20T09:24:44;101307.06;;;6.32;85.89
78299;BME280;67556;55.656;12.590;2023-03-20T09:27:11;101312.56;;;6.50;85.42
78299;BME280;67556;55.656;12.590;2023-03-20T09:29:38;101307.06;;;6.47;85.59
78299;BME280;67556;55.656;12.590;2023-03-20T09:32:05;101310.72;;;6.49;85.46
78299;BME280;67556;55.656;12.590;2023-03-20T09:34:32;101313.81;;;6.42;85.58
78299;BME280;67556;55.656;12.590;2023-03-20T09:36:58;101296.47;;;6.47;85.60
78299;BME280;67556;55.656;12.590;2023-03-20T09:39:28;101320.94;;;6.43;85.87
78299;BME280;67556;55.656;12.590;2023-03-20T09:41:59;101310.19;;;6.55;85.61
78299;BME280;67556;55.656;12.590;2023-03-20T09:44:39;101308.16;;;6.50;86.68
78299;BME280;67556;55.656;12.590;2023-03-20T09:47:15;101301.47;;;6.57;84.93
78299;BME280;67556;55.656;12.590;2023-03-20T09:50:00;101300.47;;;6.40;85.85
78299;BME280;67556;55.656;12.590;2023-03-20T09:52:31;101309.25;;;6.54;85.51
78299;BME280;67556;55.656;12.590;2023-03-20T09:55:01;101310.44;;;6.44;85.35
78299;BME280;67556;55.656;12.590;2023-03-20T09:57:36;101315.94;;;6.62;85.61
78299;BME280;67556;55.656;12.590;2023-03-20T10:00:09;101314.81;;;6.59;85.21
78299;BME280;67556;55.656;12.590;2023-03-20T10:02:44;101313.44;;;6.65;85.23
78299;BME280;67556;55.656;12.590;2023-03-20T10:05:18;101312.97;;;6.72;84.42
78299;BME280;67556;55.656;12.590;2023-03-20T10:07:45;101309.34;;;6.70;85.04
78299;BME280;67556;55.656;12.590;2023-03-20T10:10:21;101295.84;;;6.66;85.18
78299;BME280;67556;55.656;12.590;2023-03-20T10:13:01;101307.88;;;6.75;84.93
78299;BME280;67556;55.656;12.590;2023-03-20T10:15:43;101309.25;;;6.69;85.44
78299;BME280;67556;55.656;12.590;2023-03-20T10:18:17;101314.72;;;6.57;85.85
78299;BME280;67556;55.656;12.590;2023-03-20T10:20:52;101320.72;;;6.69;85.94
78299;BME280;67556;55.656;12.590;2023-03-20T10:23:25;101317.44;;;6.73;85.59
78299;BME280;67556;55.656;12.590;2023-03-20T10:25:59;101324.03;;;6.65;85.47
78299;BME280;67556;55.656;12.590;2023-03-20T10:28:31;101303.16;;;6.55;85.26
78299;BME280;67556;55.656;12.590;2023-03-20T10:31:18;101315.53;;;6.56;85.66
78299;BME280;67556;55.656;12.590;2023-03-20T10:33:56;101316.66;;;6.60;85.65
78299;BME280;67556;55.656;12.590;2023-03-20T10:36:39;101322.84;;;6.75;85.45
78299;BME280;67556;55.656;12.590;2023-03-20T10:39:12;101309.41;;;6.57;85.58
78299;BME280;67556;55.656;12.590;2023-03-20T10:41:52;101307.97;;;6.62;85.62
78299;BME280;67556;55.656;12.590;2023-03-20T10:44:26;101311.00;;;6.54;86.45
78299;BME280;67556;55.656;12.590;2023-03-20T10:46:57;101309.34;;;6.70;85.56
78299;BME280;67556;55.656;12.590;2023-03-20T10:49:31;101303.78;;;6.66;85.53
78299;BME280;67556;55.656;12.590;2023-03-20T10:52:02;101304.41;;;6.77;85.89
78299;BME280;67556;55.656;12.590;2023-03-20T10:54:33;101313.50;;;6.82;85.25
78299;BME280;67556;55.656;12.590;2023-03-20T10:57:03;101311.50;;;6.78;85.58
78299;BME280;67556;55.656;12.590;2023-03-20T10:59:33;101310.88;;;6.82;84.88
78299;BME280;67556;55.656;12.590;2023-03-20T11:02:09;101312.97;;;6.87;84.45
78299;BME280;67556;55.656;12.590;2023-03-20T11:04:36;101315.38;;;6.83;85.49
78299;BME280;67556;55.656;12.590;2023-03-20T11:07:07;101311.34;;;6.74;84.60
78299;BME280;67556;55.656;12.590;2023-03-20T11:09:35;101327.88;;;6.70;85.25
78299;BME280;67556;55.656;12.590;2023-03-20T11:12:03;101312.34;;;6.77;85.54
78299;BME280;67556;55.656;12.590;2023-03-20T11:14:33;101323.66;;;6.89;85.35
78299;BME280;67556;55.656;12.590;2023-03-20T11:17:01;101312.06;;;6.72;84.54
78299;BME280;67556;55.656;12.590;2023-03-20T11:19:32;101316.16;;;6.82;84.48
78299;BME280;67556;55.656;12.590;2023-03-20T11:22:07;101315.41;;;6.99;84.78
78299;BME280;67556;55.656;12.590;2023-03-20T11:24:36;101312.22;;;6.90;85.58
78299;BME280;67556;55.656;12.590;2023-03-20T11:27:08;101314.53;;;6.84;84.88
78299;BME280;67556;55.656;12.590;2023-03-20T11:29:36;101313.97;;;6.89;85.19
78299;BME280;67556;55.656;12.590;2023-03-20T11:32:06;101306.84;;;7.19;83.87
78299;BME280;67556;55.656;12.590;2023-03-20T11:34:36;101321.78;;;7.03;84.75
78299;BME280;67556;55.656;12.590;2023-03-20T11:37:12;101310.81;;;7.11;85.32
78299;BME280;67556;55.656;12.590;2023-03-20T11:39:53;101313.81;;;7.17;84.18
78299;BME280;67556;55.656;12.590;2023-03-20T11:42:26;101315.59;;;7.02;85.24
78299;BME280;67556;55.656;12.590;2023-03-20T11:44:58;101300.53;;;7.01;85.26
78299;BME280;67556;55.656;12.590;2023-03-20T11:47:26;101299.13;;;7.08;84.80
78299;BME280;67556;55.656;12.590;2023-03-20T11:49:55;101304.09;;;7.02;84.82
78299;BME280;67556;55.656;12.590;2023-03-20T11:52:23;101300.78;;;7.06;85.16
78299;BME280;67556;55.656;12.590;2023-03-20T11:54:54;101304.56;;;7.25;83.65
78299;BME280;67556;55.656;12.590;2023-03-20T11:57:30;101293.16;;;6.95;84.52
78299;BME280;67556;55.656;12.590;2023-03-20T12:00:00;101294.22;;;6.99;84.47
78299;BME280;67556;55.656;12.590;2023-03-20T12:02:27;101300.22;;;7.11;83.48
78299;BME280;67556;55.656;12.590;2023-03-20T12:04:58;101289.28;;;7.05;84.70
78299;BME280;67556;55.656;12.590;2023-03-20T12:07:29;101290.72;;;7.15;84.69
78299;BME280;67556;55.656;12.590;2023-03-20T12:09:58;101293.34;;;7.15;84.97
78299;BME280;67556;55.656;12.590;2023-03-20T12:12:37;101295.06;;;7.29;83.84
78299;BME280;67556;55.656;12.590;2023-03-20T12:15:15;101283.44;;;7.27;83.44
78299;BME280;67556;55.656;12.590;2023-03-20T12:17:52;101286.72;;;7.38;83.21
78299;BME280;67556;55.656;12.590;2023-03-20T12:20:28;101275.09;;;7.36;84.06
78299;BME280;67556;55.656;12.590;2023-03-20T12:25:48;101277.59;;;7.49;82.55
78299;BME280;67556;55.656;12.590;2023-03-20T12:28:23;101285.97;;;7.40;82.06
78299;BME280;67556;55.656;12.590;2023-03-20T12:31:00;101281.75;;;7.44;82.22
78299;BME280;67556;55.656;12.590;2023-03-20T12:33:42;101280.91;;;7.45;82.36
78299;BME280;67556;55.656;12.590;2023-03-20T12:36:14;101271.22;;;7.45;82.30
78299;BME280;67556;55.656;12.590;2023-03-20T12:38:42;101266.53;;;7.72;82.06
78299;BME280;67556;55.656;12.590;2023-03-20T12:41:14;101267.69;;;7.78;81.73
78299;BME280;67556;55.656;12.590;2023-03-20T12:46:43;101267.78;;;7.63;81.83
78299;BME280;67556;55.656;12.590;2023-03-20T12:49:21;101268.84;;;7.50;82.15
78299;BME280;67556;55.656;12.590;2023-03-20T12:52:04;101272.66;;;7.55;82.91
78299;BME280;67556;55.656;12.590;2023-03-20T12:54:55;101268.44;;;7.59;80.93
78299;BME280;67556;55.656;12.590;2023-03-20T12:57:30;101262.53;;;7.64;81.59
78299;BME280;67556;55.656;12.590;2023-03-20T13:00:12;101272.06;;;7.61;81.38
78299;BME280;67556;55.656;12.590;2023-03-20T13:02:49;101264.84;;;7.58;80.82
78299;BME280;67556;55.656;12.590;2023-03-20T13:05:25;101269.81;;;7.52;80.73
78299;BME280;67556;55.656;12.590;2023-03-20T13:08:12;101270.31;;;7.61;79.71
78299;BME280;67556;55.656;12.590;2023-03-20T13:10:48;101269.00;;;7.53;80.77
78299;BME280;67556;55.656;12.590;2023-03-20T13:13:20;101262.78;;;7.53;79.73
78299;BME280;67556;55.656;12.590;2023-03-20T13:16:03;101273.22;;;7.49;79.21
78299;BME280;67556;55.656;12.590;2023-03-20T13:18:43;101269.16;;;7.56;79.79
78299;BME280;67556;55.656;12.590;2023-03-20T13:21:15;101264.53;;;7.68;78.87